Terminal Aerodrome Forecast
Issued by NWS Wakefield, VA

Home | Current Version | Previous Version | Text Only | Print | Product List | Glossary On
Versions: 1 2 3 4 5 6 7 8 9 10 11 12 13 14 15 16 17 18 19 20 21 22 23 24 25 26
000
FTUS41 KAKQ 061700
TAFSBY
TAF
KSBY 061730Z 0618/0718 02008KT P6SM SKC
      TEMPO 0618/0620 BKN028
     FM062200 36002KT P6SM SKC
     FM071500 24009KT P6SM SKC=

USA.gov is the U.S. government's official web portal to all federal, state and local government web resources and services.